sensor_id;sensor_type;location;lat;lon;timestamp;pressure;altitude;pressure_sealevel;temperature;humidity
692;BME280;70475;50.084;8.576;2023-07-22T00:00:44;100586.03;;;14.34;100.00
692;BME280;70475;50.084;8.576;2023-07-22T00:03:12;100589.53;;;14.28;100.00
692;BME280;70475;50.084;8.576;2023-07-22T00:05:40;100589.13;;;14.25;100.00
692;BME280;70475;50.084;8.576;2023-07-22T00:08:11;100590.78;;;14.26;100.00
692;BME280;70475;50.084;8.576;2023-07-22T00:10:40;100591.56;;;14.39;100.00
692;BME280;70475;50.084;8.576;2023-07-22T00:13:10;100595.28;;;14.19;100.00
692;BME280;70475;50.084;8.576;2023-07-22T00:15:37;100581.69;;;14.20;100.00
692;BME280;70475;50.084;8.576;2023-07-22T00:18:05;100592.84;;;14.11;100.00
692;BME280;70475;50.084;8.576;2023-07-22T00:20:33;100585.19;;;14.14;100.00
692;BME280;70475;50.084;8.576;2023-07-22T00:23:01;100587.91;;;13.95;100.00
692;BME280;70475;50.084;8.576;2023-07-22T00:25:29;100586.25;;;13.81;100.00
692;BME280;70475;50.084;8.576;2023-07-22T00:27:56;100588.94;;;13.87;100.00
692;BME280;70475;50.084;8.576;2023-07-22T00:30:25;100594.50;;;13.86;100.00
692;BME280;70475;50.084;8.576;2023-07-22T00:32:54;100597.16;;;13.86;100.00
692;BME280;70475;50.084;8.576;2023-07-22T00:35:22;100599.03;;;13.92;100.00
692;BME280;70475;50.084;8.576;2023-07-22T00:37:49;100590.78;;;13.93;100.00
692;BME280;70475;50.084;8.576;2023-07-22T00:40:17;100585.84;;;13.84;100.00
692;BME280;70475;50.084;8.576;2023-07-22T00:42:45;100592.41;;;13.62;100.00
692;BME280;70475;50.084;8.576;2023-07-22T00:45:12;100592.81;;;13.59;100.00
692;BME280;70475;50.084;8.576;2023-07-22T00:47:42;100592.41;;;13.62;100.00
692;BME280;70475;50.084;8.576;2023-07-22T00:50:10;100594.47;;;13.53;100.00
692;BME280;70475;50.084;8.576;2023-07-22T00:52:38;100585.00;;;13.51;100.00
692;BME280;70475;50.084;8.576;2023-07-22T00:55:06;100596.13;;;13.48;100.00
692;BME280;70475;50.084;8.576;2023-07-22T00:57:36;100595.72;;;13.51;100.00
692;BME280;70475;50.084;8.576;2023-07-22T01:00:05;100591.16;;;13.45;100.00
692;BME280;70475;50.084;8.576;2023-07-22T01:02:33;100594.44;;;13.34;100.00
692;BME280;70475;50.084;8.576;2023-07-22T01:05:03;100585.38;;;13.35;100.00
692;BME280;70475;50.084;8.576;2023-07-22T01:07:30;100595.25;;;13.21;100.00
692;BME280;70475;50.084;8.576;2023-07-22T01:09:58;100586.94;;;13.10;100.00
692;BME280;70475;50.084;8.576;2023-07-22T01:12:25;100587.16;;;13.02;100.00
692;BME280;70475;50.084;8.576;2023-07-22T01:14:53;100590.88;;;13.01;100.00
692;BME280;70475;50.084;8.576;2023-07-22T01:17:21;100592.50;;;13.02;100.00
692;BME280;70475;50.084;8.576;2023-07-22T01:19:49;100586.38;;;13.21;100.00
692;BME280;70475;50.084;8.576;2023-07-22T01:22:18;100577.34;;;13.28;100.00
692;BME280;70475;50.084;8.576;2023-07-22T01:24:47;100584.97;;;13.38;100.00
692;BME280;70475;50.084;8.576;2023-07-22T01:27:14;100580.06;;;13.48;100.00
692;BME280;70475;50.084;8.576;2023-07-22T01:29:42;100581.69;;;13.36;100.00
692;BME280;70475;50.084;8.576;2023-07-22T01:32:10;100582.47;;;13.17;100.00
692;BME280;70475;50.084;8.576;2023-07-22T01:34:38;100577.94;;;13.17;100.00
692;BME280;70475;50.084;8.576;2023-07-22T01:37:06;100583.69;;;13.08;100.00
692;BME280;70475;50.084;8.576;2023-07-22T01:39:35;100590.59;;;12.96;100.00
692;BME280;70475;50.084;8.576;2023-07-22T01:42:04;100591.88;;;13.00;100.00
692;BME280;70475;50.084;8.576;2023-07-22T01:44:32;100586.50;;;13.00;100.00
692;BME280;70475;50.084;8.576;2023-07-22T01:47:01;100599.66;;;12.95;100.00
692;BME280;70475;50.084;8.576;2023-07-22T01:49:29;100589.00;;;13.01;100.00
692;BME280;70475;50.084;8.576;2023-07-22T01:51:57;100589.34;;;12.92;100.00
692;BME280;70475;50.084;8.576;2023-07-22T01:54:25;100578.44;;;12.87;100.00
692;BME280;70475;50.084;8.576;2023-07-22T01:56:52;100576.38;;;12.89;100.00
692;BME280;70475;50.084;8.576;2023-07-22T01:59:21;100585.41;;;12.81;100.00
692;BME280;70475;50.084;8.576;2023-07-22T02:01:49;100577.13;;;12.70;100.00
692;BME280;70475;50.084;8.576;2023-07-22T02:04:16;100575.66;;;12.61;100.00
692;BME280;70475;50.084;8.576;2023-07-22T02:06:44;100576.50;;;12.68;100.00
692;BME280;70475;50.084;8.576;2023-07-22T02:09:12;100578.53;;;12.59;100.00
692;BME280;70475;50.084;8.576;2023-07-22T02:11:40;100578.47;;;12.46;100.00
692;BME280;70475;50.084;8.576;2023-07-22T02:14:07;100581.72;;;12.41;100.00
692;BME280;70475;50.084;8.576;2023-07-22T02:16:37;100580.94;;;12.48;100.00
692;BME280;70475;50.084;8.576;2023-07-22T02:19:05;100586.47;;;12.46;100.00
692;BME280;70475;50.084;8.576;2023-07-22T02:21:32;100582.97;;;12.45;100.00
692;BME280;70475;50.084;8.576;2023-07-22T02:24:00;100580.63;;;12.36;100.00
692;BME280;70475;50.084;8.576;2023-07-22T02:26:27;100582.19;;;12.17;100.00
692;BME280;70475;50.084;8.576;2023-07-22T02:28:55;100575.84;;;12.25;100.00
692;BME280;70475;50.084;8.576;2023-07-22T02:31:23;100576.84;;;12.17;100.00
692;BME280;70475;50.084;8.576;2023-07-22T02:33:53;100582.47;;;12.01;100.00
692;BME280;70475;50.084;8.576;2023-07-22T02:36:20;100585.16;;;12.01;100.00
692;BME280;70475;50.084;8.576;2023-07-22T02:38:48;100583.72;;;12.05;100.00
692;BME280;70475;50.084;8.576;2023-07-22T02:41:15;100586.09;;;12.21;100.00
692;BME280;70475;50.084;8.576;2023-07-22T02:43:43;100584.59;;;12.12;100.00
692;BME280;70475;50.084;8.576;2023-07-22T02:46:10;100591.34;;;12.08;100.00
692;BME280;70475;50.084;8.576;2023-07-22T02:48:38;100590.88;;;11.98;100.00
692;BME280;70475;50.084;8.576;2023-07-22T02:51:09;100595.97;;;11.93;100.00
692;BME280;70475;50.084;8.576;2023-07-22T02:53:37;100598.91;;;11.77;100.00
692;BME280;70475;50.084;8.576;2023-07-22T02:56:05;100584.41;;;11.86;100.00
692;BME280;70475;50.084;8.576;2023-07-22T02:58:34;100582.63;;;11.93;100.00
692;BME280;70475;50.084;8.576;2023-07-22T03:01:03;100582.38;;;11.88;100.00
692;BME280;70475;50.084;8.576;2023-07-22T03:03:31;100594.06;;;11.87;100.00
692;BME280;70475;50.084;8.576;2023-07-22T03:05:59;100601.44;;;11.85;100.00
692;BME280;70475;50.084;8.576;2023-07-22T03:08:28;100595.94;;;11.66;100.00
692;BME280;70475;50.084;8.576;2023-07-22T03:10:56;100596.78;;;11.66;100.00
692;BME280;70475;50.084;8.576;2023-07-22T03:13:24;100592.44;;;11.65;100.00
692;BME280;70475;50.084;8.576;2023-07-22T03:15:56;100593.78;;;11.55;100.00
692;BME280;70475;50.084;8.576;2023-07-22T03:18:23;100603.34;;;11.49;100.00
692;BME280;70475;50.084;8.576;2023-07-22T03:20:51;100605.06;;;11.57;100.00
692;BME280;70475;50.084;8.576;2023-07-22T03:23:18;100602.00;;;11.60;100.00
692;BME280;70475;50.084;8.576;2023-07-22T03:25:48;100606.09;;;11.56;100.00
692;BME280;70475;50.084;8.576;2023-07-22T03:28:15;100612.56;;;11.47;100.00
692;BME280;70475;50.084;8.576;2023-07-22T03:30:43;100609.97;;;11.53;100.00
692;BME280;70475;50.084;8.576;2023-07-22T03:33:11;100603.09;;;11.65;100.00
692;BME280;70475;50.084;8.576;2023-07-22T03:35:38;100607.00;;;11.63;100.00
692;BME280;70475;50.084;8.576;2023-07-22T03:38:07;100606.31;;;11.75;100.00
692;BME280;70475;50.084;8.576;2023-07-22T03:40:35;100602.97;;;11.73;100.00
692;BME280;70475;50.084;8.576;2023-07-22T03:43:05;100609.09;;;11.67;100.00
692;BME280;70475;50.084;8.576;2023-07-22T03:45:33;100603.78;;;11.53;100.00
692;BME280;70475;50.084;8.576;2023-07-22T03:48:00;100594.44;;;11.42;100.00
692;BME280;70475;50.084;8.576;2023-07-22T03:50:28;100596.72;;;11.24;100.00
692;BME280;70475;50.084;8.576;2023-07-22T03:52:55;100602.44;;;11.21;100.00
692;BME280;70475;50.084;8.576;2023-07-22T03:55:23;100607.75;;;11.21;100.00
692;BME280;70475;50.084;8.576;2023-07-22T03:57:50;100608.03;;;11.26;100.00
692;BME280;70475;50.084;8.576;2023-07-22T04:00:19;100602.94;;;11.31;100.00
692;BME280;70475;50.084;8.576;2023-07-22T04:02:47;100609.00;;;11.40;100.00
692;BME280;70475;50.084;8.576;2023-07-22T04:05:15;100608.28;;;11.31;100.00
692;BME280;70475;50.084;8.576;2023-07-22T04:07:44;100606.81;;;11.29;100.00
692;BME280;70475;50.084;8.576;2023-07-22T04:10:11;100606.78;;;11.22;100.00
692;BME280;70475;50.084;8.576;2023-07-22T04:12:39;100601.81;;;11.19;100.00
692;BME280;70475;50.084;8.576;2023-07-22T04:15:09;100600.69;;;11.14;100.00
692;BME280;70475;50.084;8.576;2023-07-22T04:17:39;100606.78;;;11.22;100.00
692;BME280;70475;50.084;8.576;2023-07-22T04:20:07;100597.88;;;11.36;100.00
692;BME280;70475;50.084;8.576;2023-07-22T04:22:35;100595.09;;;11.65;100.00
692;BME280;70475;50.084;8.576;2023-07-22T04:25:04;100591.28;;;11.53;100.00
692;BME280;70475;50.084;8.576;2023-07-22T04:27:32;100594.97;;;11.52;100.00
692;BME280;70475;50.084;8.576;2023-07-22T04:30:00;100594.31;;;11.65;100.00
692;BME280;70475;50.084;8.576;2023-07-22T04:32:28;100593.16;;;11.74;100.00
692;BME280;70475;50.084;8.576;2023-07-22T04:34:57;100605.47;;;11.75;100.00
692;BME280;70475;50.084;8.576;2023-07-22T04:37:25;100604.47;;;11.61;100.00
692;BME280;70475;50.084;8.576;2023-07-22T04:39:53;100598.28;;;11.54;100.00
692;BME280;70475;50.084;8.576;2023-07-22T04:42:21;100611.78;;;11.53;100.00
692;BME280;70475;50.084;8.576;2023-07-22T04:44:49;100610.50;;;11.63;100.00
692;BME280;70475;50.084;8.576;2023-07-22T04:47:16;100617.47;;;11.64;100.00
692;BME280;70475;50.084;8.576;2023-07-22T04:49:44;100617.66;;;11.63;100.00
692;BME280;70475;50.084;8.576;2023-07-22T04:52:13;100618.50;;;11.63;100.00
692;BME280;70475;50.084;8.576;2023-07-22T04:54:41;100617.53;;;11.71;100.00
692;BME280;70475;50.084;8.576;2023-07-22T04:57:08;100611.25;;;11.78;100.00
692;BME280;70475;50.084;8.576;2023-07-22T04:59:36;100619.56;;;11.90;100.00
692;BME280;70475;50.084;8.576;2023-07-22T05:02:05;100613.44;;;11.96;100.00
692;BME280;70475;50.084;8.576;2023-07-22T05:04:33;100617.41;;;12.06;100.00
692;BME280;70475;50.084;8.576;2023-07-22T05:07:00;100609.25;;;12.14;100.00
692;BME280;70475;50.084;8.576;2023-07-22T05:09:29;100612.59;;;12.23;100.00
692;BME280;70475;50.084;8.576;2023-07-22T05:11:57;100617.53;;;12.19;100.00
692;BME280;70475;50.084;8.576;2023-07-22T05:14:24;100619.63;;;12.24;100.00
692;BME280;70475;50.084;8.576;2023-07-22T05:16:52;100619.25;;;12.33;100.00
692;BME280;70475;50.084;8.576;2023-07-22T05:19:20;100622.38;;;12.43;100.00
692;BME280;70475;50.084;8.576;2023-07-22T05:21:47;100621.19;;;12.46;100.00
692;BME280;70475;50.084;8.576;2023-07-22T05:24:15;100628.22;;;12.54;100.00
692;BME280;70475;50.084;8.576;2023-07-22T05:26:44;100627.84;;;12.63;100.00
692;BME280;70475;50.084;8.576;2023-07-22T05:29:28;100623.41;;;12.77;100.00
692;BME280;70475;50.084;8.576;2023-07-22T05:31:56;100623.47;;;12.90;100.00
692;BME280;70475;50.084;8.576;2023-07-22T05:34:23;100632.41;;;13.03;100.00
692;BME280;70475;50.084;8.576;2023-07-22T05:36:51;100623.97;;;13.13;100.00
692;BME280;70475;50.084;8.576;2023-07-22T05:39:18;100628.56;;;13.25;100.00
692;BME280;70475;50.084;8.576;2023-07-22T05:41:47;100639.69;;;13.35;100.00
692;BME280;70475;50.084;8.576;2023-07-22T05:44:15;100632.94;;;13.46;100.00
692;BME280;70475;50.084;8.576;2023-07-22T05:46:42;100627.59;;;13.59;100.00
692;BME280;70475;50.084;8.576;2023-07-22T05:49:10;100638.13;;;13.67;100.00
692;BME280;70475;50.084;8.576;2023-07-22T05:51:44;100634.84;;;13.78;100.00
692;BME280;70475;50.084;8.576;2023-07-22T05:54:12;100627.44;;;13.80;100.00
692;BME280;70475;50.084;8.576;2023-07-22T05:56:39;100635.25;;;13.94;100.00
692;BME280;70475;50.084;8.576;2023-07-22T05:59:08;100637.31;;;13.99;100.00
692;BME280;70475;50.084;8.576;2023-07-22T06:01:36;100636.50;;;14.05;100.00
692;BME280;70475;50.084;8.576;2023-07-22T06:04:04;100634.44;;;14.20;100.00
692;BME280;70475;50.084;8.576;2023-07-22T06:06:32;100643.53;;;14.32;100.00
692;BME280;70475;50.084;8.576;2023-07-22T06:09:00;100633.22;;;14.42;100.00
692;BME280;70475;50.084;8.576;2023-07-22T06:11:28;100643.09;;;14.48;100.00
692;BME280;70475;50.084;8.576;2023-07-22T06:13:56;100641.22;;;14.62;100.00
692;BME280;70475;50.084;8.576;2023-07-22T06:16:24;100637.88;;;14.73;100.00
692;BME280;70475;50.084;8.576;2023-07-22T06:18:52;100634.34;;;14.85;100.00
692;BME280;70475;50.084;8.576;2023-07-22T06:21:20;100628.72;;;15.00;100.00
692;BME280;70475;50.084;8.576;2023-07-22T06:23:48;100624.69;;;15.22;97.84
692;BME280;70475;50.084;8.576;2023-07-22T06:26:15;100634.53;;;15.41;96.96
692;BME280;70475;50.084;8.576;2023-07-22T06:28:43;100638.66;;;15.68;93.78
692;BME280;70475;50.084;8.576;2023-07-22T06:31:10;100632.84;;;15.77;90.38
692;BME280;70475;50.084;8.576;2023-07-22T06:33:39;100635.41;;;15.90;90.78
692;BME280;70475;50.084;8.576;2023-07-22T06:36:06;100632.47;;;15.98;89.02
692;BME280;70475;50.084;8.576;2023-07-22T06:38:34;100641.91;;;16.07;88.97
692;BME280;70475;50.084;8.576;2023-07-22T06:41:02;100634.53;;;16.21;91.71
692;BME280;70475;50.084;8.576;2023-07-22T06:43:29;100646.16;;;16.39;92.57
692;BME280;70475;50.084;8.576;2023-07-22T06:45:57;100643.81;;;16.50;91.25
692;BME280;70475;50.084;8.576;2023-07-22T06:48:24;100646.16;;;16.64;91.95
692;BME280;70475;50.084;8.576;2023-07-22T06:50:54;100652.81;;;16.80;91.93
692;BME280;70475;50.084;8.576;2023-07-22T06:53:21;100653.72;;;16.92;91.46
692;BME280;70475;50.084;8.576;2023-07-22T06:55:49;100651.44;;;17.07;90.64
692;BME280;70475;50.084;8.576;2023-07-22T06:58:17;100649.06;;;17.17;86.30
692;BME280;70475;50.084;8.576;2023-07-22T07:00:45;100649.81;;;17.24;85.94
692;BME280;70475;50.084;8.576;2023-07-22T07:03:13;100651.72;;;17.35;80.62
692;BME280;70475;50.084;8.576;2023-07-22T07:05:40;100646.31;;;17.35;80.53
692;BME280;70475;50.084;8.576;2023-07-22T07:08:09;100645.53;;;17.34;82.27
692;BME280;70475;50.084;8.576;2023-07-22T07:10:38;100642.00;;;17.34;83.06
692;BME280;70475;50.084;8.576;2023-07-22T07:13:06;100645.81;;;17.44;83.80
692;BME280;70475;50.084;8.576;2023-07-22T07:15:37;100645.59;;;17.46;81.59
692;BME280;70475;50.084;8.576;2023-07-22T07:18:07;100640.09;;;17.52;79.81
692;BME280;70475;50.084;8.576;2023-07-22T07:20:35;100651.84;;;17.58;80.44
692;BME280;70475;50.084;8.576;2023-07-22T07:23:02;100647.38;;;17.52;80.56
692;BME280;70475;50.084;8.576;2023-07-22T07:25:31;100641.06;;;17.58;78.17
692;BME280;70475;50.084;8.576;2023-07-22T07:27:59;100642.97;;;17.69;77.67
692;BME280;70475;50.084;8.576;2023-07-22T07:30:26;100649.31;;;17.74;75.38
692;BME280;70475;50.084;8.576;2023-07-22T07:32:54;100645.09;;;17.67;78.18
692;BME280;70475;50.084;8.576;2023-07-22T07:35:22;100653.44;;;17.77;77.13
692;BME280;70475;50.084;8.576;2023-07-22T07:37:52;100646.84;;;17.73;76.05
692;BME280;70475;50.084;8.576;2023-07-22T07:40:20;100639.78;;;17.60;78.33
692;BME280;70475;50.084;8.576;2023-07-22T07:42:49;100642.97;;;17.69;79.63
692;BME280;70475;50.084;8.576;2023-07-22T07:45:16;100651.81;;;17.87;80.03
692;BME280;70475;50.084;8.576;2023-07-22T07:47:44;100651.72;;;18.05;79.77
692;BME280;70475;50.084;8.576;2023-07-22T07:50:11;100649.53;;;18.14;75.95
692;BME280;70475;50.084;8.576;2023-07-22T07:52:39;100650.69;;;18.06;75.69
692;BME280;70475;50.084;8.576;2023-07-22T07:55:07;100647.41;;;18.16;78.81
692;BME280;70475;50.084;8.576;2023-07-22T07:57:35;100655.25;;;18.29;75.29
692;BME280;70475;50.084;8.576;2023-07-22T08:00:05;100650.97;;;18.39;78.59
692;BME280;70475;50.084;8.576;2023-07-22T08:02:34;100646.41;;;18.52;77.62
692;BME280;70475;50.084;8.576;2023-07-22T08:05:02;100649.56;;;18.49;78.64
692;BME280;70475;50.084;8.576;2023-07-22T08:07:30;100641.13;;;18.45;76.01
692;BME280;70475;50.084;8.576;2023-07-22T08:09:57;100640.06;;;18.58;73.64
692;BME280;70475;50.084;8.576;2023-07-22T08:12:25;100643.22;;;18.66;72.08
692;BME280;70475;50.084;8.576;2023-07-22T08:14:53;100642.88;;;18.74;72.91
692;BME280;70475;50.084;8.576;2023-07-22T08:17:22;100646.47;;;18.80;75.70
692;BME280;70475;50.084;8.576;2023-07-22T08:19:49;100642.75;;;18.58;72.18
692;BME280;70475;50.084;8.576;2023-07-22T08:22:17;100642.66;;;18.64;74.18
692;BME280;70475;50.084;8.576;2023-07-22T08:24:45;100642.41;;;18.77;69.37
692;BME280;70475;50.084;8.576;2023-07-22T08:27:15;100646.56;;;18.96;71.09
692;BME280;70475;50.084;8.576;2023-07-22T08:29:42;100643.91;;;19.24;70.05
692;BME280;70475;50.084;8.576;2023-07-22T08:32:10;100630.91;;;19.21;69.69
692;BME280;70475;50.084;8.576;2023-07-22T08:34:39;100640.28;;;19.30;67.99
692;BME280;70475;50.084;8.576;2023-07-22T08:37:07;100644.81;;;19.41;69.74
692;BME280;70475;50.084;8.576;2023-07-22T08:39:34;100636.88;;;19.51;67.66
692;BME280;70475;50.084;8.576;2023-07-22T08:42:03;100628.25;;;19.66;67.06
692;BME280;70475;50.084;8.576;2023-07-22T08:44:32;100640.56;;;19.73;65.35
692;BME280;70475;50.084;8.576;2023-07-22T08:47:02;100640.31;;;19.75;65.87
692;BME280;70475;50.084;8.576;2023-07-22T08:49:32;100632.63;;;19.83;64.81
692;BME280;70475;50.084;8.576;2023-07-22T08:52:02;100630.00;;;19.72;59.30
692;BME280;70475;50.084;8.576;2023-07-22T08:54:30;100628.25;;;19.66;59.56
692;BME280;70475;50.084;8.576;2023-07-22T08:56:58;100620.56;;;19.74;60.50
692;BME280;70475;50.084;8.576;2023-07-22T08:59:25;100626.31;;;19.94;58.92
692;BME280;70475;50.084;8.576;2023-07-22T09:01:53;100620.16;;;19.99;57.62
692;BME280;70475;50.084;8.576;2023-07-22T09:04:22;100619.53;;;20.08;57.72
692;BME280;70475;50.084;8.576;2023-07-22T09:06:50;100617.75;;;20.14;58.46
692;BME280;70475;50.084;8.576;2023-07-22T09:09:19;100619.56;;;20.25;59.36
692;BME280;70475;50.084;8.576;2023-07-22T09:11:48;100615.75;;;20.43;59.42
692;BME280;70475;50.084;8.576;2023-07-22T09:14:18;100618.53;;;20.48;58.61
692;BME280;70475;50.084;8.576;2023-07-22T09:17:01;100620.88;;;20.61;59.16
692;BME280;70475;50.084;8.576;2023-07-22T09:19:29;100617.16;;;20.67;55.02
692;BME280;70475;50.084;8.576;2023-07-22T09:21:57;100617.50;;;20.70;56.62
692;BME280;70475;50.084;8.576;2023-07-22T09:24:27;100626.00;;;20.79;57.97
692;BME280;70475;50.084;8.576;2023-07-22T09:26:57;100616.25;;;20.78;55.36
692;BME280;70475;50.084;8.576;2023-07-22T09:29:35;100615.97;;;20.96;55.78
692;BME280;70475;50.084;8.576;2023-07-22T09:32:04;100619.34;;;21.08;53.38
692;BME280;70475;50.084;8.576;2023-07-22T09:34:31;100616.63;;;21.08;55.02
692;BME280;70475;50.084;8.576;2023-07-22T09:36:59;100615.19;;;21.22;53.09
692;BME280;70475;50.084;8.576;2023-07-22T09:39:29;100617.84;;;21.17;53.42
692;BME280;70475;50.084;8.576;2023-07-22T09:41:57;100617.44;;;21.03;53.08
692;BME280;70475;50.084;8.576;2023-07-22T09:44:29;100613.44;;;21.11;53.19
692;BME280;70475;50.084;8.576;2023-07-22T09:47:08;100611.25;;;21.34;51.78
692;BME280;70475;50.084;8.576;2023-07-22T09:49:40;100593.13;;;21.61;51.46
692;BME280;70475;50.084;8.576;2023-07-22T09:52:09;100600.06;;;21.74;51.81
692;BME280;70475;50.084;8.576;2023-07-22T09:54:46;100605.91;;;21.66;51.00
692;BME280;70475;50.084;8.576;2023-07-22T09:57:15;100587.34;;;21.53;51.69
692;BME280;70475;50.084;8.576;2023-07-22T09:59:43;100587.50;;;21.68;51.32
692;BME280;70475;50.084;8.576;2023-07-22T10:02:12;100590.88;;;21.80;52.01
692;BME280;70475;50.084;8.576;2023-07-22T10:04:40;100585.13;;;22.08;50.55
692;BME280;70475;50.084;8.576;2023-07-22T10:07:08;100587.56;;;22.09;48.38
692;BME280;70475;50.084;8.576;2023-07-22T10:09:38;100575.84;;;21.99;50.51
692;BME280;70475;50.084;8.576;2023-07-22T10:12:07;100578.47;;;21.89;49.93
692;BME280;70475;50.084;8.576;2023-07-22T10:14:35;100578.97;;;21.86;50.91
692;BME280;70475;50.084;8.576;2023-07-22T10:17:05;100577.06;;;21.81;49.23
692;BME280;70475;50.084;8.576;2023-07-22T10:19:35;100577.28;;;22.06;49.68
692;BME280;70475;50.084;8.576;2023-07-22T10:22:03;100579.22;;;22.16;49.76
692;BME280;70475;50.084;8.576;2023-07-22T10:24:33;100579.38;;;22.41;48.17
692;BME280;70475;50.084;8.576;2023-07-22T10:27:01;100576.78;;;22.61;48.72
692;BME280;70475;50.084;8.576;2023-07-22T10:29:29;100571.91;;;22.58;45.81
692;BME280;70475;50.084;8.576;2023-07-22T10:31:57;100562.22;;;22.77;47.32
692;BME280;70475;50.084;8.576;2023-07-22T10:34:24;100564.47;;;23.00;48.54
692;BME280;70475;50.084;8.576;2023-07-22T10:36:55;100567.22;;;23.05;48.16
692;BME280;70475;50.084;8.576;2023-07-22T10:39:28;100551.44;;;23.07;44.85
692;BME280;70475;50.084;8.576;2023-07-22T10:42:00;100554.69;;;22.94;45.76
692;BME280;70475;50.084;8.576;2023-07-22T10:44:30;100541.06;;;22.89;48.23
692;BME280;70475;50.084;8.576;2023-07-22T10:46:59;100547.13;;;23.06;45.56
692;BME280;70475;50.084;8.576;2023-07-22T10:49:42;100535.69;;;23.14;45.43
692;BME280;70475;50.084;8.576;2023-07-22T10:52:12;100537.56;;;22.99;44.71
692;BME280;70475;50.084;8.576;2023-07-22T10:54:40;100529.28;;;23.30;46.84
692;BME280;70475;50.084;8.576;2023-07-22T10:57:23;100536.34;;;23.46;43.91
692;BME280;70475;50.084;8.576;2023-07-22T10:59:52;100540.16;;;23.60;44.17
692;BME280;70475;50.084;8.576;2023-07-22T11:02:23;100532.00;;;23.50;40.56
692;BME280;70475;50.084;8.576;2023-07-22T11:04:52;100526.00;;;23.53;41.01
692;BME280;70475;50.084;8.576;2023-07-22T11:07:33;100532.00;;;23.60;42.84
692;BME280;70475;50.084;8.576;2023-07-22T11:10:13;100521.66;;;23.52;41.86
692;BME280;70475;50.084;8.576;2023-07-22T11:12:42;100517.59;;;23.65;41.73
692;BME280;70475;50.084;8.576;2023-07-22T11:15:10;100526.84;;;23.54;41.23
692;BME280;70475;50.084;8.576;2023-07-22T11:17:38;100521.63;;;23.42;41.53
692;BME280;70475;50.084;8.576;2023-07-22T11:20:08;100516.50;;;23.51;41.44
692;BME280;70475;50.084;8.576;2023-07-22T11:22:40;100510.78;;;23.62;41.19
692;BME280;70475;50.084;8.576;2023-07-22T11:25:08;100510.50;;;23.59;41.33
692;BME280;70475;50.084;8.576;2023-07-22T11:27:36;100505.88;;;23.54;41.41
692;BME280;70475;50.084;8.576;2023-07-22T11:30:05;100510.78;;;23.57;41.71
692;BME280;70475;50.084;8.576;2023-07-22T11:32:33;100508.88;;;23.53;42.20
692;BME280;70475;50.084;8.576;2023-07-22T11:35:01;100503.72;;;23.41;40.68
692;BME280;70475;50.084;8.576;2023-07-22T11:37:28;100501.53;;;23.28;42.70
692;BME280;70475;50.084;8.576;2023-07-22T11:40:00;100496.06;;;23.23;42.82
692;BME280;70475;50.084;8.576;2023-07-22T11:42:28;100499.63;;;23.29;43.60
692;BME280;70475;50.084;8.576;2023-07-22T11:44:56;100490.13;;;23.41;43.66
692;BME280;70475;50.084;8.576;2023-07-22T11:47:28;100488.19;;;23.77;43.92
692;BME280;70475;50.084;8.576;2023-07-22T11:49:56;100479.19;;;24.01;45.23
692;BME280;70475;50.084;8.576;2023-07-22T11:52:25;100492.75;;;24.27;45.72
692;BME280;70475;50.084;8.576;2023-07-22T11:54:53;100476.44;;;24.16;43.71
692;BME280;70475;50.084;8.576;2023-07-22T11:57:23;100468.78;;;24.34;44.79
692;BME280;70475;50.084;8.576;2023-07-22T11:59:53;100468.97;;;24.52;44.18
692;BME280;70475;50.084;8.576;2023-07-22T12:02:22;100463.53;;;24.47;42.28
692;BME280;70475;50.084;8.576;2023-07-22T12:04:53;100465.59;;;24.06;42.31
692;BME280;70475;50.084;8.576;2023-07-22T12:07:23;100474.28;;;24.13;43.44
692;BME280;70475;50.084;8.576;2023-07-22T12:09:51;100463.16;;;24.10;43.70
692;BME280;70475;50.084;8.576;2023-07-22T12:12:19;100456.38;;;23.97;44.05
692;BME280;70475;50.084;8.576;2023-07-22T12:14:48;100462.91;;;23.96;44.78
692;BME280;70475;50.084;8.576;2023-07-22T12:17:15;100462.88;;;23.91;42.39
692;BME280;70475;50.084;8.576;2023-07-22T12:19:51;100454.47;;;23.83;42.92
692;BME280;70475;50.084;8.576;2023-07-22T12:22:19;100455.53;;;23.97;44.43
692;BME280;70475;50.084;8.576;2023-07-22T12:24:47;100454.44;;;24.03;43.90
692;BME280;70475;50.084;8.576;2023-07-22T12:27:14;100460.66;;;24.13;45.43
692;BME280;70475;50.084;8.576;2023-07-22T12:29:42;100459.28;;;24.16;42.32
692;BME280;70475;50.084;8.576;2023-07-22T12:32:11;100459.25;;;24.31;43.61
692;BME280;70475;50.084;8.576;2023-07-22T12:34:38;100456.25;;;24.33;43.33
692;BME280;70475;50.084;8.576;2023-07-22T12:37:07;100452.47;;;24.29;43.10
692;BME280;70475;50.084;8.576;2023-07-22T12:39:35;100453.56;;;24.17;43.60
692;BME280;70475;50.084;8.576;2023-07-22T12:42:03;100457.44;;;24.01;43.34
692;BME280;70475;50.084;8.576;2023-07-22T12:44:31;100443.81;;;24.06;44.14
692;BME280;70475;50.084;8.576;2023-07-22T12:46:58;100437.19;;;24.33;43.43
692;BME280;70475;50.084;8.576;2023-07-22T12:49:27;100446.94;;;24.44;42.90
692;BME280;70475;50.084;8.576;2023-07-22T12:51:55;100450.75;;;24.43;43.00
692;BME280;70475;50.084;8.576;2023-07-22T12:54:29;100450.47;;;24.44;42.42
692;BME280;70475;50.084;8.576;2023-07-22T12:56:57;100438.22;;;24.47;41.51
692;BME280;70475;50.084;8.576;2023-07-22T12:59:24;100444.66;;;24.07;41.66
692;BME280;70475;50.084;8.576;2023-07-22T13:01:52;100436.69;;;24.20;43.20
692;BME280;70475;50.084;8.576;2023-07-22T13:04:20;100438.84;;;24.34;46.07
692;BME280;70475;50.084;8.576;2023-07-22T13:06:49;100439.28;;;24.51;44.45
692;BME280;70475;50.084;8.576;2023-07-22T13:09:18;100429.97;;;24.62;41.24
692;BME280;70475;50.084;8.576;2023-07-22T13:11:45;100426.22;;;24.53;41.43